createdAt,value
2022-08-17T00:00:43.514Z,99417.72
2022-08-17T00:01:22.542Z,99419.78
2022-08-17T00:01:57.536Z,99426.13
2022-08-17T00:02:34.359Z,99419.94
2022-08-17T00:03:14.441Z,99422.44
2022-08-17T00:03:46.339Z,99420.78
2022-08-17T00:04:17.801Z,99419.94
2022-08-17T00:04:50.697Z,99417.25
2022-08-17T00:05:22.190Z,99419.94
2022-08-17T00:06:00.457Z,99415.22
2022-08-17T00:06:31.791Z,99411.38
2022-08-17T00:07:03.099Z,99413.38
2022-08-17T00:07:34.446Z,99413.59
2022-08-17T00:08:05.744Z,99410.91
2022-08-17T00:08:38.483Z,99412.91
2022-08-17T00:09:09.777Z,99409.22
2022-08-17T00:09:49.570Z,99409.88
2022-08-17T00:10:20.847Z,99408.22
2022-08-17T00:10:52.193Z,99409.22
2022-08-17T00:11:25.000Z,99411.91
2022-08-17T00:12:40.550Z,99417.25
2022-08-17T00:12:47.618Z,99417.91
2022-08-17T00:13:20.717Z,99413.38
2022-08-17T00:13:55.137Z,99417.38
2022-08-17T00:14:27.563Z,99425.06
2022-08-17T00:14:58.856Z,99424.06
2022-08-17T00:15:30.170Z,99418.03
2022-08-17T00:16:02.895Z,99417.56
2022-08-17T00:16:55.383Z,99415.88
2022-08-17T00:17:26.621Z,99414.22
2022-08-17T00:17:57.932Z,99409.03
2022-08-17T00:19:06.139Z,99415.88
2022-08-17T00:19:21.638Z,99417.38
2022-08-17T00:19:52.946Z,99410.47
2022-08-17T00:20:30.550Z,99418.31
2022-08-17T00:21:05.448Z,99417.19
2022-08-17T00:22:31.261Z,99421.25
2022-08-17T00:22:36.421Z,99417.09
2022-08-17T00:23:09.242Z,99423.28
2022-08-17T00:23:44.291Z,99421.41
2022-08-17T00:24:19.325Z,99417.72
2022-08-17T00:24:50.674Z,99419.59
2022-08-17T00:25:21.969Z,99425.59
2022-08-17T00:25:53.301Z,99415.88
2022-08-17T00:26:43.173Z,99413.19
2022-08-17T00:27:16.112Z,99407.81
2022-08-17T00:27:47.433Z,99419.59
2022-08-17T00:28:18.722Z,99408.88
2022-08-17T00:28:52.186Z,99415.06
2022-08-17T00:29:23.544Z,99410.03
2022-08-17T00:29:54.868Z,99416.25
2022-08-17T00:30:26.172Z,99410.91
2022-08-17T00:30:57.457Z,99405.53
2022-08-17T00:31:28.762Z,99410.34
2022-08-17T00:32:01.168Z,99407.97
2022-08-17T00:33:23.032Z,99406.09
2022-08-17T00:33:43.939Z,99411.66
2022-08-17T00:34:15.242Z,99413.16
2022-08-17T00:34:46.575Z,99401.03
2022-08-17T00:35:18.108Z,99407.41
2022-08-17T00:35:49.454Z,99406.56
2022-08-17T00:36:20.742Z,99404.72
2022-08-17T00:36:52.040Z,99403.25
2022-08-17T00:37:23.316Z,99408.78
2022-08-17T00:37:54.638Z,99405.47
2022-08-17T00:38:26.091Z,99404.44
2022-08-17T00:38:57.367Z,99401.56
2022-08-17T00:39:28.747Z,99404.44
2022-08-17T00:40:00.994Z,99401.75
2022-08-17T00:40:40.797Z,99416.47
2022-08-17T00:41:17.917Z,99407.09
2022-08-17T00:41:50.269Z,99403.13
2022-08-17T00:42:21.564Z,99406.00
2022-08-17T00:42:52.842Z,99411.19
2022-08-17T00:43:40.473Z,99405.16
2022-08-17T00:44:11.762Z,99412.19
2022-08-17T00:44:44.038Z,99413.19
2022-08-17T00:45:15.989Z,99408.69
2022-08-17T00:45:47.301Z,99420.06
2022-08-17T00:46:22.565Z,99414.69
2022-08-17T00:46:53.898Z,99408.50
2022-08-17T00:47:25.242Z,99407.09
2022-08-17T00:47:56.527Z,99411.47
2022-08-17T00:48:29.931Z,99403.59
2022-08-17T00:49:01.995Z,99402.78
2022-08-17T00:49:33.290Z,99401.94
2022-08-17T00:50:05.678Z,99396.09
2022-08-17T00:50:36.949Z,99400.16
2022-08-17T00:51:08.239Z,99395.63
2022-08-17T00:51:58.196Z,99404.84
2022-08-17T00:52:30.418Z,99398.03
2022-08-17T00:53:01.868Z,99402.34
2022-08-17T00:53:33.829Z,99397.50
2022-08-17T00:54:11.220Z,99404.31
2022-08-17T00:54:43.994Z,99404.97
2022-08-17T00:55:15.282Z,99402.66
2022-08-17T00:55:46.571Z,99398.50
2022-08-17T00:56:19.430Z,99399.50
2022-08-17T00:56:51.994Z,99396.53
2022-08-17T00:57:24.496Z,99399.19
2022-08-17T00:57:57.124Z,99400.88
2022-08-17T00:58:35.425Z,99403.72
2022-08-17T00:59:07.758Z,99398.34
2022-08-17T00:59:40.281Z,99401.88
2022-08-17T01:00:13.609Z,99400.56
2022-08-17T01:00:45.598Z,99399.53
2022-08-17T01:01:21.239Z,99396.03
2022-08-17T01:01:53.309Z,99397.03
2022-08-17T01:02:24.587Z,99401.56
2022-08-17T01:02:57.370Z,99399.88
2022-08-17T01:03:28.661Z,99390.84
2022-08-17T01:04:00.169Z,99389.16
2022-08-17T01:04:31.553Z,99393.69
2022-08-17T01:05:02.869Z,99391.00
2022-08-17T01:05:34.328Z,99396.19
2022-08-17T01:06:05.741Z,99394.34
2022-08-17T01:06:37.280Z,99396.19
2022-08-17T01:07:08.870Z,99393.53
2022-08-17T01:07:40.176Z,99392.69
2022-08-17T01:08:12.359Z,99400.75
2022-08-17T01:08:43.672Z,99393.53
2022-08-17T01:09:17.782Z,99395.19
2022-08-17T01:09:49.105Z,99394.34
2022-08-17T01:10:57.608Z,99398.72
2022-08-17T01:11:17.331Z,99398.88
2022-08-17T01:11:48.637Z,99389.16
2022-08-17T01:12:19.913Z,99390.19
2022-08-17T01:12:51.347Z,99400.91
2022-08-17T01:13:22.837Z,99391.19
2022-08-17T01:13:54.205Z,99390.00
2022-08-17T01:14:25.737Z,99385.66
2022-08-17T01:14:57.058Z,99392.88
2022-08-17T01:15:29.466Z,99388.97
2022-08-17T01:16:09.840Z,99390.00
2022-08-17T01:16:41.121Z,99394.81
2022-08-17T01:17:12.427Z,99391.81
2022-08-17T01:17:44.266Z,99388.59
2022-08-17T01:18:15.552Z,99391.72
2022-08-17T01:18:47.374Z,99389.72
2022-08-17T01:19:19.735Z,99389.03
2022-08-17T01:19:51.090Z,99384.72
2022-08-17T01:20:22.406Z,99390.63
2022-08-17T01:20:54.220Z,99387.94
2022-08-17T01:21:31.697Z,99393.47
2022-08-17T01:22:05.450Z,99391.81
2022-08-17T01:22:36.748Z,99390.81
2022-08-17T01:23:08.069Z,99381.75
2022-08-17T01:23:39.414Z,99392.31
2022-08-17T01:24:10.731Z,99391.44
2022-08-17T01:24:46.015Z,99390.44
2022-08-17T01:25:17.374Z,99391.09
2022-08-17T01:25:53.035Z,99390.25
2022-08-17T01:26:24.349Z,99382.22
2022-08-17T01:26:56.578Z,99385.06
2022-08-17T01:27:29.000Z,99394.81
2022-08-17T01:28:00.288Z,99387.94
2022-08-17T01:28:53.122Z,99392.47
2022-08-17T01:29:23.453Z,99388.47
2022-08-17T01:29:56.481Z,99386.63
2022-08-17T01:30:56.963Z,99397.16
2022-08-17T01:31:19.048Z,99394.50
2022-08-17T01:31:52.245Z,99399.31
2022-08-17T01:32:23.566Z,99395.28
2022-08-17T01:32:54.887Z,99394.22
2022-08-17T01:33:26.216Z,99388.41
2022-08-17T01:33:58.355Z,99392.31
2022-08-17T01:34:35.269Z,99389.31
2022-08-17T01:35:15.150Z,99400.88
2022-08-17T01:35:46.444Z,99396.53
2022-08-17T01:36:17.742Z,99392.13
2022-08-17T01:36:49.151Z,99399.19
2022-08-17T01:37:21.044Z,99399.84
2022-08-17T01:37:52.372Z,99403.56
2022-08-17T01:38:27.073Z,99393.47
2022-08-17T01:38:58.643Z,99395.34
2022-08-17T01:39:31.605Z,99392.84
2022-08-17T01:40:23.178Z,99392.84
2022-08-17T01:40:57.466Z,99388.47
2022-08-17T01:41:29.104Z,99402.03
2022-08-17T01:42:18.157Z,99392.97
2022-08-17T01:42:55.001Z,99397.50
2022-08-17T01:43:27.040Z,99398.34
2022-08-17T01:44:00.279Z,99392.97
2022-08-17T01:44:31.586Z,99400.38
2022-08-17T01:45:09.090Z,99393.16
2022-08-17T01:45:44.457Z,99396.84
2022-08-17T01:46:16.764Z,99399.53
2022-08-17T01:46:48.069Z,99397.69
2022-08-17T01:47:19.350Z,99400.56
2022-08-17T01:47:51.129Z,99394.34
2022-08-17T01:48:22.890Z,99396.19
2022-08-17T01:48:54.279Z,99397.03
2022-08-17T01:49:25.568Z,99392.53
2022-08-17T01:49:56.869Z,99397.88
2022-08-17T01:50:29.437Z,99397.03
2022-08-17T01:51:00.723Z,99396.56
2022-08-17T01:51:32.319Z,99399.72
2022-08-17T01:52:12.411Z,99393.69
2022-08-17T01:52:44.022Z,99389.34
2022-08-17T01:53:19.180Z,99398.25
2022-08-17T01:53:51.441Z,99396.19
2022-08-17T01:54:22.727Z,99391.84
2022-08-17T01:54:54.160Z,99397.88
2022-08-17T01:55:28.655Z,99395.84
2022-08-17T01:56:05.377Z,99394.16
2022-08-17T01:56:37.180Z,99402.03
2022-08-17T01:57:08.473Z,99401.03
2022-08-17T01:57:39.762Z,99399.19
2022-08-17T01:58:11.068Z,99398.53
2022-08-17T01:58:42.408Z,99399.19
2022-08-17T01:59:13.695Z,99399.53
2022-08-17T01:59:46.657Z,99397.88
2022-08-17T02:00:18.038Z,99397.19
2022-08-17T02:01:01.328Z,99401.56
2022-08-17T02:01:33.102Z,99396.19
2022-08-17T02:02:04.914Z,99394.16
2022-08-17T02:02:36.212Z,99403.25
2022-08-17T02:03:07.505Z,99397.50
2022-08-17T02:03:38.834Z,99398.34
2022-08-17T02:04:10.136Z,99397.50
2022-08-17T02:04:41.439Z,99396.66
2022-08-17T02:05:12.744Z,99396.53
2022-08-17T02:05:44.260Z,99395.19
2022-08-17T02:06:27.792Z,99394.16
2022-08-17T02:06:59.636Z,99394.16
2022-08-17T02:07:31.770Z,99401.75
2022-08-17T02:08:19.981Z,99401.44
2022-08-17T02:09:02.992Z,99396.28
2022-08-17T02:09:34.909Z,99402.63
2022-08-17T02:10:20.187Z,99395.63
2022-08-17T02:10:51.778Z,99393.13
2022-08-17T02:11:23.920Z,99399.31
2022-08-17T02:11:55.193Z,99392.25
2022-08-17T02:12:37.603Z,99392.25
2022-08-17T02:13:10.851Z,99401.34
2022-08-17T02:13:44.360Z,99394.13
2022-08-17T02:14:15.648Z,99395.13
2022-08-17T02:14:46.936Z,99401.34
2022-08-17T02:15:18.232Z,99408.34
2022-08-17T02:15:49.512Z,99394.13
2022-08-17T02:16:20.806Z,99394.94
2022-08-17T02:16:52.129Z,99399.31
2022-08-17T02:17:23.469Z,99396.63
2022-08-17T02:17:55.008Z,99393.13
2022-08-17T02:18:26.688Z,99390.63
2022-08-17T02:18:58.033Z,99395.97
2022-08-17T02:19:30.714Z,99392.94
2022-08-17T02:20:02.044Z,99396.28
2022-08-17T02:20:42.641Z,99392.25
2022-08-17T02:21:14.270Z,99387.75
2022-08-17T02:21:46.255Z,99393.75
2022-08-17T02:22:17.579Z,99392.38
2022-08-17T02:22:49.060Z,99387.88
2022-08-17T02:23:20.509Z,99378.78
2022-08-17T02:23:51.801Z,99388.34
2022-08-17T02:25:00.252Z,99395.19
2022-08-17T02:25:16.038Z,99386.75
2022-08-17T02:25:47.335Z,99392.13
2022-08-17T02:26:25.724Z,99389.13
2022-08-17T02:26:57.709Z,99382.25
2022-08-17T02:27:29.095Z,99388.47
2022-08-17T02:28:00.559Z,99390.47
2022-08-17T02:28:31.882Z,99390.00
2022-08-17T02:29:03.225Z,99387.16
2022-08-17T02:29:34.562Z,99387.50
2022-08-17T02:30:06.285Z,99387.88
2022-08-17T02:31:00.816Z,99389.50
2022-08-17T02:31:34.391Z,99392.88
2022-08-17T02:32:05.787Z,99387.88
2022-08-17T02:32:37.074Z,99389.91
2022-08-17T02:33:09.357Z,99386.53
2022-08-17T02:33:42.503Z,99386.38
2022-08-17T02:34:14.668Z,99386.72
2022-08-17T02:34:45.967Z,99386.91
2022-08-17T02:35:19.381Z,99381.72
2022-08-17T02:35:53.509Z,99381.88
2022-08-17T02:36:27.400Z,99385.25
2022-08-17T02:36:58.924Z,99390.63
2022-08-17T02:37:30.225Z,99386.06
2022-08-17T02:38:01.657Z,99383.56
2022-08-17T02:38:33.010Z,99386.44
2022-08-17T02:39:05.034Z,99392.63
2022-08-17T02:39:36.375Z,99389.75
2022-08-17T02:40:07.962Z,99386.44
2022-08-17T02:40:39.652Z,99388.09
2022-08-17T02:41:10.944Z,99392.25
2022-08-17T02:41:42.235Z,99394.13
2022-08-17T02:42:13.779Z,99384.22
2022-08-17T02:42:45.150Z,99386.06
2022-08-17T02:43:16.436Z,99386.06
2022-08-17T02:43:47.763Z,99387.94
2022-08-17T02:44:39.256Z,99392.25
2022-08-17T02:45:17.222Z,99387.06
2022-08-17T02:45:48.519Z,99387.56
2022-08-17T02:46:19.851Z,99387.94
2022-08-17T02:46:51.153Z,99387.94
2022-08-17T02:47:22.584Z,99386.25
2022-08-17T02:47:53.893Z,99387.25
2022-08-17T02:48:30.778Z,99385.25
2022-08-17T02:49:03.623Z,99391.63
2022-08-17T02:49:34.913Z,99388.94
2022-08-17T02:50:06.580Z,99383.41
2022-08-17T02:50:37.866Z,99384.22
2022-08-17T02:51:09.186Z,99388.09
2022-08-17T02:51:40.502Z,99387.06
2022-08-17T02:52:11.827Z,99385.44
2022-08-17T02:52:44.156Z,99388.09
2022-08-17T02:53:18.726Z,99388.09
2022-08-17T02:53:50.036Z,99386.59
2022-08-17T02:54:40.852Z,99383.75
2022-08-17T02:55:16.923Z,99390.97
2022-08-17T02:55:48.224Z,99381.06
2022-08-17T02:56:19.514Z,99383.56
2022-08-17T02:56:50.818Z,99379.03
2022-08-17T02:57:22.126Z,99384.41
2022-08-17T02:57:53.448Z,99378.03
2022-08-17T02:58:32.072Z,99385.44
2022-08-17T02:59:06.912Z,99382.94
2022-08-17T02:59:38.536Z,99381.25
2022-08-17T03:00:10.978Z,99378.38
2022-08-17T03:00:43.556Z,99383.56
2022-08-17T03:01:14.896Z,99379.22
2022-08-17T03:01:46.422Z,99379.88
2022-08-17T03:02:17.781Z,99375.16
2022-08-17T03:02:49.495Z,99381.53
2022-08-17T03:03:20.961Z,99380.34
2022-08-17T03:03:52.274Z,99381.19
2022-08-17T03:04:23.599Z,99375.81
2022-08-17T03:04:54.877Z,99378.50
2022-08-17T03:05:26.947Z,99377.84
2022-08-17T03:05:58.225Z,99375.00
2022-08-17T03:06:29.515Z,99376.69
2022-08-17T03:07:00.802Z,99374.16
2022-08-17T03:07:32.089Z,99380.81
2022-08-17T03:08:03.617Z,99384.53
2022-08-17T03:08:34.906Z,99376.50
2022-08-17T03:09:06.186Z,99375.00
2022-08-17T03:09:37.496Z,99372.13
2022-08-17T03:10:09.054Z,99376.50
2022-08-17T03:10:40.601Z,99375.63
2022-08-17T03:11:11.949Z,99370.09
2022-08-17T03:11:43.249Z,99374.47
2022-08-17T03:12:14.553Z,99374.94
2022-08-17T03:12:45.873Z,99370.56
2022-08-17T03:13:17.148Z,99369.75
2022-08-17T03:13:48.445Z,99372.25
2022-08-17T03:14:19.736Z,99376.44
2022-08-17T03:14:57.594Z,99375.09
2022-08-17T03:15:29.770Z,99373.59
2022-08-17T03:16:01.088Z,99377.13
2022-08-17T03:16:32.357Z,99373.81
2022-08-17T03:17:04.780Z,99372.97
2022-08-17T03:17:36.082Z,99374.16
2022-08-17T03:18:07.446Z,99368.31
2022-08-17T03:18:45.681Z,99368.13
2022-08-17T03:19:16.990Z,99372.50
2022-08-17T03:19:48.284Z,99378.69
2022-08-17T03:20:20.178Z,99376.19
2022-08-17T03:20:51.509Z,99374.16
2022-08-17T03:21:22.819Z,99375.81
2022-08-17T03:21:55.394Z,99372.66
2022-08-17T03:22:36.540Z,99376.19
2022-08-17T03:23:09.593Z,99380.81
2022-08-17T03:23:41.037Z,99371.31
2022-08-17T03:24:12.333Z,99374.63
2022-08-17T03:24:43.688Z,99382.69
2022-08-17T03:25:19.509Z,99374.63
2022-08-17T03:25:54.186Z,99373.44
2022-08-17T03:26:25.513Z,99377.13
2022-08-17T03:27:01.156Z,99372.13
2022-08-17T03:27:32.469Z,99373.31
2022-08-17T03:28:04.141Z,99371.66
2022-08-17T03:28:35.440Z,99372.84
2022-08-17T03:29:06.736Z,99374.88
2022-08-17T03:29:38.039Z,99381.25
2022-08-17T03:30:09.536Z,99375.88
2022-08-17T03:30:40.820Z,99374.06
2022-08-17T03:31:12.129Z,99375.06
2022-08-17T03:31:43.528Z,99372.19
2022-08-17T03:32:15.322Z,99370.69
2022-08-17T03:32:47.136Z,99369.88
2022-08-17T03:33:18.606Z,99374.25
2022-08-17T03:33:49.962Z,99371.38
2022-08-17T03:34:21.254Z,99372.84
2022-08-17T03:34:57.033Z,99373.84
2022-08-17T03:35:29.572Z,99374.88
2022-08-17T03:36:00.869Z,99372.19
2022-08-17T03:36:32.175Z,99365.16
2022-08-17T03:37:07.476Z,99365.81
2022-08-17T03:37:38.805Z,99370.34
2022-08-17T03:38:10.530Z,99371.16
2022-08-17T03:38:41.798Z,99367.84
2022-08-17T03:39:13.097Z,99374.88
2022-08-17T03:39:44.455Z,99374.06
2022-08-17T03:40:16.070Z,99369.53
2022-08-17T03:41:07.339Z,99379.03
2022-08-17T03:41:38.624Z,99374.06
2022-08-17T03:42:14.329Z,99368.69
2022-08-17T03:43:07.098Z,99376.75
2022-08-17T03:43:38.397Z,99372.03
2022-08-17T03:44:09.692Z,99375.72
2022-08-17T03:44:40.986Z,99379.41
2022-08-17T03:45:15.422Z,99373.19
2022-08-17T03:45:46.921Z,99373.91
2022-08-17T03:46:28.636Z,99374.41
2022-08-17T03:47:06.764Z,99373.66
2022-08-17T03:47:38.054Z,99377.69
2022-08-17T03:48:12.631Z,99375.47
2022-08-17T03:48:43.929Z,99375.28
2022-08-17T03:49:15.252Z,99371.78
2022-08-17T03:49:46.538Z,99374.63
2022-08-17T03:50:18.370Z,99376.69
2022-08-17T03:50:49.737Z,99375.00
2022-08-17T03:51:21.839Z,99380.19
2022-08-17T03:51:53.674Z,99379.53
2022-08-17T03:52:24.998Z,99373.31
2022-08-17T03:52:56.378Z,99377.84
2022-08-17T03:53:27.788Z,99376.34
2022-08-17T03:53:59.063Z,99376.19
2022-08-17T03:54:30.351Z,99374.53
2022-08-17T03:55:01.620Z,99369.81
2022-08-17T03:55:36.013Z,99375.16
2022-08-17T03:56:07.778Z,99374.53
2022-08-17T03:56:39.091Z,99375.72
2022-08-17T03:57:10.677Z,99375.53
2022-08-17T03:57:42.003Z,99372.84
2022-08-17T03:58:13.360Z,99371.84
2022-08-17T03:58:44.903Z,99371.00
2022-08-17T03:59:21.213Z,99374.53
2022-08-17T03:59:53.947Z,99371.00
2022-08-17T04:00:25.245Z,99374.53
2022-08-17T04:00:56.728Z,99370.00
2022-08-17T04:01:28.104Z,99365.81
2022-08-17T04:02:01.210Z,99370.81
2022-08-17T04:02:32.706Z,99368.13
2022-08-17T04:03:03.989Z,99371.66
2022-08-17T04:03:35.303Z,99370.63
2022-08-17T04:04:06.629Z,99371.13
2022-08-17T04:04:37.935Z,99373.81
2022-08-17T04:05:09.265Z,99365.44
2022-08-17T04:05:40.657Z,99370.34
2022-08-17T04:06:11.957Z,99370.34
2022-08-17T04:06:43.238Z,99373.19
2022-08-17T04:07:14.552Z,99367.19
2022-08-17T04:07:45.834Z,99363.69
2022-08-17T04:08:17.328Z,99367.38
2022-08-17T04:08:48.672Z,99360.34
2022-08-17T04:09:20.003Z,99371.56
2022-08-17T04:09:51.285Z,99372.38
2022-08-17T04:10:25.986Z,99360.44
2022-08-17T04:10:57.805Z,99364.16
2022-08-17T04:11:29.117Z,99373.66
2022-08-17T04:12:02.396Z,99371.84
2022-08-17T04:12:43.400Z,99373.03
2022-08-17T04:13:14.779Z,99371.16
2022-08-17T04:13:46.171Z,99368.69
2022-08-17T04:14:17.460Z,99368.88
2022-08-17T04:14:53.245Z,99377.75
2022-08-17T04:15:25.613Z,99369.06
2022-08-17T04:15:56.915Z,99377.28
2022-08-17T04:16:28.378Z,99377.63
2022-08-17T04:16:59.685Z,99375.41
2022-08-17T04:17:30.998Z,99375.41
2022-08-17T04:18:02.287Z,99376.41
2022-08-17T04:18:33.659Z,99371.91
2022-08-17T04:19:05.102Z,99382.63
2022-08-17T04:19:36.421Z,99374.59
2022-08-17T04:20:07.952Z,99380.94
2022-08-17T04:20:39.415Z,99380.13
2022-08-17T04:21:10.764Z,99378.28
2022-08-17T04:21:42.091Z,99375.59
2022-08-17T04:22:32.344Z,99373.09
2022-08-17T04:23:06.380Z,99378.28
2022-08-17T04:23:37.675Z,99378.28
2022-08-17T04:24:08.947Z,99379.09
2022-08-17T04:24:40.284Z,99384.28
2022-08-17T04:25:15.291Z,99382.63
2022-08-17T04:25:47.437Z,99380.94
2022-08-17T04:26:52.457Z,99388.81
2022-08-17T04:27:10.060Z,99376.53
2022-08-17T04:27:41.349Z,99380.72
2022-08-17T04:28:16.166Z,99379.03
2022-08-17T04:28:47.819Z,99383.69
2022-08-17T04:29:19.204Z,99386.19
2022-08-17T04:29:54.741Z,99388.22
2022-08-17T04:30:27.107Z,99388.88
2022-08-17T04:30:58.686Z,99394.06
2022-08-17T04:31:29.983Z,99392.38
2022-08-17T04:32:01.962Z,99394.59
2022-08-17T04:33:03.837Z,99392.75
2022-08-17T04:33:26.570Z,99390.25
2022-08-17T04:33:57.878Z,99389.41
2022-08-17T04:34:29.198Z,99395.63
2022-08-17T04:35:00.496Z,99386.44
2022-08-17T04:35:32.392Z,99385.25
2022-08-17T04:36:04.114Z,99385.06
2022-08-17T04:36:35.496Z,99387.25
2022-08-17T04:37:06.812Z,99387.81
2022-08-17T04:37:38.122Z,99390.97
2022-08-17T04:38:10.164Z,99389.94
2022-08-17T04:38:42.107Z,99393.66
2022-08-17T04:39:13.418Z,99391.31
2022-08-17T04:39:44.777Z,99391.31
2022-08-17T04:40:16.452Z,99389.66
2022-08-17T04:40:47.831Z,99388.81
2022-08-17T04:41:19.128Z,99402.41
2022-08-17T04:41:50.404Z,99387.31
2022-08-17T04:42:21.725Z,99391.69
2022-08-17T04:43:03.167Z,99400.72
2022-08-17T04:43:34.660Z,99397.56
2022-08-17T04:44:05.955Z,99400.06
2022-08-17T04:44:38.174Z,99394.72
2022-08-17T04:45:09.746Z,99397.03
2022-08-17T04:45:55.204Z,99403.56
2022-08-17T04:46:28.714Z,99392.03
2022-08-17T04:46:59.996Z,99396.38
2022-08-17T04:47:31.293Z,99398.22
2022-08-17T04:48:02.693Z,99394.06
2022-08-17T04:48:36.150Z,99394.72
2022-08-17T04:49:09.686Z,99400.72
2022-08-17T04:49:40.946Z,99398.22
2022-08-17T04:50:12.249Z,99400.53
2022-08-17T04:50:44.238Z,99401.75
2022-08-17T04:51:21.837Z,99396.56
2022-08-17T04:51:56.147Z,99403.09
2022-08-17T04:52:29.675Z,99402.28
2022-08-17T04:53:18.923Z,99411.16
2022-08-17T04:53:54.521Z,99403.09
2022-08-17T04:54:26.422Z,99400.25
2022-08-17T04:54:57.696Z,99397.75
2022-08-17T04:55:28.985Z,99405.59
2022-08-17T04:56:00.323Z,99404.13
2022-08-17T04:56:31.699Z,99405.13
2022-08-17T04:57:02.983Z,99403.09
2022-08-17T04:57:39.485Z,99405.44
2022-08-17T04:58:13.183Z,99400.44
2022-08-17T04:58:44.971Z,99398.22
2022-08-17T04:59:17.299Z,99405.09
2022-08-17T04:59:48.622Z,99401.69
2022-08-17T05:00:20.134Z,99406.69
2022-08-17T05:00:51.509Z,99409.56
2022-08-17T05:01:24.527Z,99399.66
2022-08-17T05:01:56.062Z,99401.97
2022-08-17T05:02:27.329Z,99407.34
2022-08-17T05:02:58.644Z,99410.75
2022-08-17T05:03:29.975Z,99401.69
2022-08-17T05:04:32.964Z,99407.41
2022-08-17T05:04:53.655Z,99411.81
2022-08-17T05:05:31.139Z,99413.47
2022-08-17T05:06:02.473Z,99409.16
2022-08-17T05:06:33.773Z,99410.78
2022-08-17T05:07:05.098Z,99408.94
2022-08-17T05:07:36.421Z,99408.13
2022-08-17T05:08:07.737Z,99406.25
2022-08-17T05:08:39.110Z,99407.28
2022-08-17T05:09:10.474Z,99409.31
2022-08-17T05:09:41.760Z,99414.69
2022-08-17T05:10:13.048Z,99413.00
2022-08-17T05:10:45.327Z,99412.19
2022-08-17T05:11:17.077Z,99406.81
2022-08-17T05:11:48.359Z,99412.81
2022-08-17T05:12:19.636Z,99404.78
2022-08-17T05:13:00.735Z,99410.16
2022-08-17T05:13:32.057Z,99408.47
2022-08-17T05:14:03.407Z,99412.00
2022-08-17T05:14:34.715Z,99412.19
2022-08-17T05:15:06.923Z,99413.00
2022-08-17T05:15:38.697Z,99406.81
2022-08-17T05:16:16.331Z,99418.84
2022-08-17T05:16:47.631Z,99415.34
2022-08-17T05:17:18.914Z,99408.13
2022-08-17T05:17:50.235Z,99417.66
2022-08-17T05:18:21.590Z,99418.13
2022-08-17T05:18:55.815Z,99418.13
2022-08-17T05:19:27.110Z,99415.63
2022-08-17T05:22:07.280Z,99418.97
2022-08-17T05:22:58.174Z,99423.66
2022-08-17T05:23:53.937Z,99421.47
2022-08-17T05:24:53.426Z,99416.56
2022-08-17T05:25:41.326Z,99416.75
2022-08-17T05:26:31.921Z,99412.53
2022-08-17T05:27:23.643Z,99419.75
2022-08-17T05:28:16.771Z,99418.72
2022-08-17T05:29:08.380Z,99413.19
2022-08-17T05:29:59.262Z,99417.06
2022-08-17T05:30:48.680Z,99417.78
2022-08-17T05:31:40.222Z,99411.59
2022-08-17T05:32:38.121Z,99410.09
2022-08-17T05:34:38.673Z,99406.63
2022-08-17T05:35:31.918Z,99408.13
2022-08-17T05:39:47.963Z,99407.88
2022-08-17T05:40:40.581Z,99409.03
2022-08-17T05:41:28.879Z,99402.28
2022-08-17T05:42:13.401Z,99406.00
2022-08-17T05:42:56.361Z,99402.63
2022-08-17T05:44:47.157Z,99406.22
2022-08-17T05:45:39.891Z,99407.69
2022-08-17T05:46:32.776Z,99407.16
2022-08-17T05:47:09.842Z,99408.84
2022-08-17T05:47:46.667Z,99402.63
2022-08-17T05:48:39.272Z,99403.84
2022-08-17T05:51:09.820Z,99404.38
2022-08-17T05:52:04.721Z,99409.25
2022-08-17T05:53:04.335Z,99404.03
2022-08-17T05:53:43.035Z,99407.53
2022-08-17T05:54:35.402Z,99406.34
2022-08-17T05:55:19.539Z,99403.00
2022-08-17T05:56:22.700Z,99411.88
2022-08-17T05:57:17.874Z,99401.97
2022-08-17T05:58:02.452Z,99404.84
2022-08-17T06:01:55.528Z,99408.22
2022-08-17T06:02:36.423Z,99399.19
2022-08-17T06:03:32.277Z,99407.88
2022-08-17T06:04:13.724Z,99400.38
2022-08-17T06:04:56.194Z,99392.38
2022-08-17T06:05:37.844Z,99406.09
2022-08-17T06:06:31.379Z,99403.41
2022-08-17T06:07:18.003Z,99396.44
2022-08-17T06:08:14.725Z,99396.44
2022-08-17T06:08:53.757Z,99400.78
2022-08-17T06:09:34.006Z,99397.28
2022-08-17T06:10:24.540Z,99395.41
2022-08-17T06:11:13.583Z,99401.13
2022-08-17T06:11:53.339Z,99396.28
2022-08-17T06:12:28.722Z,99392.75
2022-08-17T06:15:12.404Z,99391.91
2022-08-17T06:16:25.919Z,99394.41
2022-08-17T06:20:30.449Z,99388.41
2022-08-17T06:30:21.209Z,99391.91
2022-08-17T11:22:42.476Z,99441.72
2022-08-17T11:23:31.924Z,99448.44
2022-08-17T11:24:11.751Z,99443.06
2022-08-17T11:24:53.792Z,99449.78
2022-08-17T11:25:49.520Z,99452.44
2022-08-17T11:26:32.903Z,99442.41
2022-08-17T11:27:40.049Z,99451.09
2022-08-17T11:28:39.645Z,99441.56
2022-08-17T11:29:28.014Z,99453.47
2022-08-17T11:31:07.028Z,99452.28
2022-08-17T11:31:54.760Z,99457.16
2022-08-17T11:32:48.765Z,99453.84
2022-08-17T11:33:31.976Z,99458.84
2022-08-17T11:34:27.616Z,99457.19
2022-08-17T11:35:26.851Z,99457.50
2022-08-17T11:36:47.113Z,99457.81
2022-08-17T11:37:31.652Z,99458.72
2022-08-17T11:38:16.332Z,99459.50
2022-08-17T11:39:13.021Z,99463.84
2022-08-17T11:40:17.699Z,99462.56
2022-08-17T11:41:22.973Z,99457.50
2022-08-17T11:42:26.198Z,99465.72
2022-08-17T11:43:18.639Z,99462.22
2022-08-17T11:45:32.285Z,99464.38
2022-08-17T11:46:44.296Z,99459.88
2022-08-17T11:47:28.454Z,99466.84
2022-08-17T11:48:28.174Z,99462.44
2022-08-17T11:49:14.318Z,99460.16
2022-08-17T11:49:55.791Z,99461.19
2022-08-17T11:50:53.209Z,99454.47
2022-08-17T11:52:07.591Z,99451.81
2022-08-17T11:52:56.413Z,99456.16
2022-08-17T11:53:39.775Z,99450.16
2022-08-17T11:54:32.740Z,99447.66
2022-08-17T11:55:35.425Z,99448.13
2022-08-17T11:56:30.768Z,99458.53
2022-08-17T11:57:34.342Z,99447.78
2022-08-17T11:58:37.920Z,99456.75
2022-08-17T11:59:33.127Z,99451.41
2022-08-17T12:00:31.208Z,99459.44
2022-08-17T12:01:16.141Z,99459.66
2022-08-17T12:02:00.431Z,99461.34
2022-08-17T12:02:48.098Z,99458.00
2022-08-17T12:03:26.971Z,99463.97
2022-08-17T12:04:29.131Z,99460.38
2022-08-17T12:05:20.992Z,99462.81
2022-08-17T12:06:18.173Z,99470.72
2022-08-17T12:07:08.598Z,99460.50
2022-08-17T12:08:21.181Z,99465.16
2022-08-17T12:09:18.702Z,99459.97
2022-08-17T12:10:09.213Z,99454.03
2022-08-17T12:11:56.248Z,99463.47
2022-08-17T12:13:30.620Z,99462.53
2022-08-17T12:14:35.694Z,99464.38
2022-08-17T12:15:38.263Z,99460.31
2022-08-17T12:16:44.689Z,99464.81
2022-08-17T12:17:41.244Z,99457.78
2022-08-17T12:18:33.883Z,99462.25
2022-08-17T12:19:27.787Z,99458.94
2022-08-17T12:20:13.874Z,99456.25
2022-08-17T12:21:12.428Z,99459.09
2022-08-17T12:22:15.483Z,99452.22
2022-08-17T12:23:15.404Z,99453.91
2022-08-17T12:28:04.342Z,99445.56
2022-08-17T12:28:54.925Z,99438.56
2022-08-17T12:29:44.380Z,99446.41
2022-08-17T12:31:57.166Z,99440.03
2022-08-17T12:32:58.009Z,99439.69
2022-08-17T12:33:44.953Z,99442.53
2022-08-17T12:34:40.965Z,99442.38
2022-08-17T12:35:33.371Z,99438.84
2022-08-17T12:36:08.989Z,99438.00
2022-08-17T12:36:50.051Z,99446.69
2022-08-17T12:37:41.732Z,99439.69
2022-08-17T12:38:36.079Z,99449.06
2022-08-17T12:40:43.422Z,99442.41